Time;durP1;ratioP1;P1;durP2;ratioP2;P2;SDS_P1;SDS_P2;PMS_P1;PMS_P2;Temp;Humidity;BMP_temperature;BMP_pressure;BME280_temperature;BME280_humidity;BME280_pressure;Samples;Min_cycle;Max_cycle;Signal;HPM_P1;HPM_P2
2023/11/23 00:01:54;;;;;;;;;;;;;;;24.42;28.98;102553.56;4196573;28;19924;-59
2023/11/23 00:03:55;;;;;;;;;;;;;;;24.45;28.84;102554.22;4196395;28;20369;-59
2023/11/23 00:05:57;;;;;;;;;;;;;;;24.45;29.19;102553.34;4196109;28;20307;-58
2023/11/23 00:08:00;;;;;;;;;;;;;;;24.45;29.01;102545.28;4197110;28;19931;-59
2023/11/23 00:10:04;;;;;;;;;;;;;;;24.44;29.01;102547.09;4199603;28;19920;-58
2023/11/23 00:12:05;;;;;;;;;;;;;;;24.41;28.99;102541.91;4199578;28;19924;-59
2023/11/23 00:14:07;;;;;;;;;;;;;;;24.40;29.04;102545.59;4199452;28;19925;-58
2023/11/23 00:16:09;;;;;;;;;;;;;;;24.38;29.36;102558.28;4199511;28;19924;-58
2023/11/23 00:18:11;;;;;;;;;;;;;;;24.38;29.33;102542.13;4199427;28;20264;-58
2023/11/23 00:20:12;;;;;;;;;;;;;;;24.39;28.96;102539.34;4199100;28;20004;-58
2023/11/23 00:22:15;;;;;;;;;;;;;;;24.42;29.04;102534.72;4199247;28;19927;-58
2023/11/23 00:24:17;;;;;;;;;;;;;;;24.43;29.01;102531.94;4199320;28;19967;-59
2023/11/23 00:26:19;;;;;;;;;;;;;;;24.44;29.12;102530.97;4199171;28;20307;-59
2023/11/23 00:28:20;;;;;;;;;;;;;;;24.44;29.31;102522.91;4199407;28;19928;-59
2023/11/23 00:30:22;;;;;;;;;;;;;;;24.43;29.44;102513.09;4199212;28;19920;-58
2023/11/23 00:32:23;;;;;;;;;;;;;;;24.40;29.13;102508.78;4199331;28;20021;-59
2023/11/23 00:34:25;;;;;;;;;;;;;;;24.38;29.04;102516.09;4198888;28;19921;-58
2023/11/23 00:36:26;;;;;;;;;;;;;;;24.28;29.61;102495.28;4199242;28;19974;-58
2023/11/23 00:38:28;;;;;;;;;;;;;;;24.35;29.34;102515.44;4199184;28;20427;-59
2023/11/23 00:40:30;;;;;;;;;;;;;;;24.35;29.30;102513.63;4199046;28;20405;-58
2023/11/23 00:42:31;;;;;;;;;;;;;;;24.36;29.11;102509.97;4198914;28;19921;-58
2023/11/23 00:44:33;;;;;;;;;;;;;;;24.39;29.40;102508.91;4199170;28;19920;-58
2023/11/23 00:46:37;;;;;;;;;;;;;;;24.42;29.29;102497.09;4198945;28;19924;-58
2023/11/23 00:48:38;;;;;;;;;;;;;;;24.44;29.20;102487.94;4198814;28;19929;-58
2023/11/23 00:50:40;;;;;;;;;;;;;;;24.45;29.45;102488.78;4198879;28;19930;-59
2023/11/23 00:52:42;;;;;;;;;;;;;;;24.44;29.52;102482.56;4198976;28;19931;-59
2023/11/23 00:54:43;;;;;;;;;;;;;;;24.43;29.13;102485.38;4198913;28;19959;-58
2023/11/23 00:56:45;;;;;;;;;;;;;;;24.40;29.40;102484.59;4199050;28;19936;-58
2023/11/23 00:58:46;;;;;;;;;;;;;;;24.39;29.41;102476.63;4199063;28;19924;-58
2023/11/23 01:00:48;;;;;;;;;;;;;;;24.37;29.39;102474.03;4198728;28;19920;-58
2023/11/23 01:02:50;;;;;;;;;;;;;;;24.37;29.67;102471.34;4198515;28;19931;-58
2023/11/23 01:04:52;;;;;;;;;;;;;;;24.38;29.49;102464.16;4198759;28;20367;-59
2023/11/23 01:06:54;;;;;;;;;;;;;;;24.40;29.47;102467.59;4198889;28;19965;-58
2023/11/23 01:08:56;;;;;;;;;;;;;;;24.44;29.68;102466.44;4198839;28;19921;-58
2023/11/23 01:10:59;;;;;;;;;;;;;;;24.45;29.43;102467.28;4198538;28;19920;-58
2023/11/23 01:13:01;;;;;;;;;;;;;;;24.47;29.43;102471.59;4198590;28;19982;-58
2023/11/23 01:15:02;;;;;;;;;;;;;;;24.47;29.44;102468.88;4198894;28;19927;-59
2023/11/23 01:17:04;;;;;;;;;;;;;;;24.46;29.48;102480.63;4198313;28;19962;-58
2023/11/23 01:19:06;;;;;;;;;;;;;;;24.45;29.83;102478.03;4197316;28;20404;-58
2023/11/23 01:21:07;;;;;;;;;;;;;;;24.43;29.50;102471.91;4198717;28;19920;-58
2023/11/23 01:23:11;;;;;;;;;;;;;;;24.39;29.53;102466.72;4198738;28;20390;-58
2023/11/23 01:25:13;;;;;;;;;;;;;;;24.38;29.60;102473.06;4198229;28;19955;-58
2023/11/23 01:27:20;;;;;;;;;;;;;;;24.39;29.71;102473.94;4198333;28;20011;-58
2023/11/23 01:29:21;;;;;;;;;;;;;;;24.32;29.95;102456.50;4197220;28;19927;-58
2023/11/23 01:31:29;;;;;;;;;;;;;;;24.46;29.54;102471.69;4198132;28;20311;-58
2023/11/23 01:33:30;;;;;;;;;;;;;;;24.47;29.69;102479.66;4198314;28;20295;-59
2023/11/23 01:35:32;;;;;;;;;;;;;;;24.49;29.74;102474.19;4197919;28;19966;-58
2023/11/23 01:37:35;;;;;;;;;;;;;;;24.50;29.75;102475.91;4198230;28;19952;-59
2023/11/23 01:39:37;;;;;;;;;;;;;;;24.48;29.39;102475.16;4198236;28;20011;-59
2023/11/23 01:41:38;;;;;;;;;;;;;;;24.45;29.64;102478.91;4198367;28;20399;-59
2023/11/23 01:43:43;;;;;;;;;;;;;;;24.46;29.57;102485.13;4198293;28;19924;-59
2023/11/23 01:45:44;;;;;;;;;;;;;;;24.42;29.69;102483.63;4197997;28;19928;-59
2023/11/23 01:47:46;;;;;;;;;;;;;;;24.42;29.71;102497.09;4197803;28;20382;-59
2023/11/23 01:49:49;;;;;;;;;;;;;;;24.43;29.81;102499.66;4198237;28;19928;-59
2023/11/23 01:51:50;;;;;;;;;;;;;;;24.45;29.65;102499.56;4197857;28;19924;-58
2023/11/23 01:53:52;;;;;;;;;;;;;;;24.48;29.63;102497.53;4197947;28;20287;-58
2023/11/23 01:55:54;;;;;;;;;;;;;;;24.50;29.74;102492.91;4197925;28;19990;-57
2023/11/23 01:57:57;;;;;;;;;;;;;;;24.51;29.86;102494.63;4197977;28;19921;-58
2023/11/23 01:59:59;;;;;;;;;;;;;;;24.51;29.61;102489.25;4197733;28;20019;-59
2023/11/23 02:02:02;;;;;;;;;;;;;;;24.50;29.74;102484.00;4197505;28;19924;-59
2023/11/23 02:04:04;;;;;;;;;;;;;;;24.47;29.78;102484.19;4197711;28;20319;-59
2023/11/23 02:06:05;;;;;;;;;;;;;;;24.46;29.98;102493.22;4197677;28;20023;-59
2023/11/23 02:08:07;;;;;;;;;;;;;;;24.44;29.70;102490.63;4196513;28;19924;-59
2023/11/23 02:10:09;;;;;;;;;;;;;;;24.44;29.88;102489.78;4197867;28;19990;-58
2023/11/23 02:12:11;;;;;;;;;;;;;;;24.45;29.79;102497.75;4197758;28;20349;-58
2023/11/23 02:14:12;;;;;;;;;;;;;;;24.49;29.83;102498.41;4197527;28;20007;-58
2023/11/23 02:16:14;;;;;;;;;;;;;;;24.49;29.78;102498.41;4197335;28;19920;-58
2023/11/23 02:18:15;;;;;;;;;;;;;;;24.50;29.61;102495.59;4197694;28;19920;-57
2023/11/23 02:20:17;;;;;;;;;;;;;;;24.52;30.00;102493.69;4197518;28;20022;-57
2023/11/23 02:22:19;;;;;;;;;;;;;;;24.52;29.79;102501.75;4197452;28;19920;-57
2023/11/23 02:24:20;;;;;;;;;;;;;;;24.51;29.95;102502.72;4197569;28;19926;-58
2023/11/23 02:26:22;;;;;;;;;;;;;;;24.51;29.78;102507.22;4196375;28;19999;-58
2023/11/23 02:28:24;;;;;;;;;;;;;;;24.49;29.73;102509.16;4197368;28;19948;-58
2023/11/23 02:30:26;;;;;;;;;;;;;;;24.47;30.09;102508.38;4196594;28;19943;-59
2023/11/23 02:32:27;;;;;;;;;;;;;;;24.45;30.06;102502.25;4197330;28;19989;-57
2023/11/23 02:34:29;;;;;;;;;;;;;;;24.45;29.91;102492.38;4197330;28;20351;-58
2023/11/23 02:36:30;;;;;;;;;;;;;;;24.49;29.78;102509.16;4197218;28;20403;-58
2023/11/23 02:38:32;;;;;;;;;;;;;;;24.51;29.97;102501.81;4195991;28;19971;-57
2023/11/23 02:40:33;;;;;;;;;;;;;;;24.53;29.78;102500.78;4196146;28;19947;-58
2023/11/23 02:42:35;;;;;;;;;;;;;;;24.53;29.88;102503.47;4197241;28;19961;-58
2023/11/23 02:44:36;;;;;;;;;;;;;;;24.54;29.76;102496.25;4196760;28;19921;-58
2023/11/23 02:46:38;;;;;;;;;;;;;;;24.52;29.88;102495.47;4197181;28;19966;-58
2023/11/23 02:48:39;;;;;;;;;;;;;;;24.50;30.11;102497.44;4197136;28;19931;-59
2023/11/23 02:50:41;;;;;;;;;;;;;;;24.48;30.14;102491.28;4196950;28;20331;-58
2023/11/23 02:52:43;;;;;;;;;;;;;;;24.47;29.80;102497.63;4196989;28;19931;-58
2023/11/23 02:54:44;;;;;;;;;;;;;;;24.46;30.27;102495.91;4197313;28;20047;-59
2023/11/23 02:56:46;;;;;;;;;;;;;;;24.47;30.23;102501.16;4197068;28;19927;-58
2023/11/23 02:58:48;;;;;;;;;;;;;;;24.50;30.20;102494.75;4197012;28;20007;-59
2023/11/23 03:00:52;;;;;;;;;;;;;;;24.52;30.02;102503.56;4197059;28;19966;-58
2023/11/23 03:02:54;;;;;;;;;;;;;;;24.53;29.94;102500.78;4196464;28;19935;-58
2023/11/23 03:04:56;;;;;;;;;;;;;;;24.56;29.75;102500.56;4196753;28;20373;-59
2023/11/23 03:06:58;;;;;;;;;;;;;;;24.55;29.95;102500.69;4196946;28;19920;-58
2023/11/23 03:08:59;;;;;;;;;;;;;;;24.53;29.91;102491.84;4196789;28;20252;-58
2023/11/23 03:11:01;;;;;;;;;;;;;;;24.52;29.96;102498.19;4196835;28;19925;-59
2023/11/23 03:13:03;;;;;;;;;;;;;;;24.51;30.21;102501.81;4196701;28;19950;-58
2023/11/23 03:15:04;;;;;;;;;;;;;;;24.50;30.14;102497.44;4196694;28;19920;-59
2023/11/23 03:17:06;;;;;;;;;;;;;;;24.49;30.32;102498.41;4196678;28;20391;-59
2023/11/23 03:19:07;;;;;;;;;;;;;;;24.50;30.13;102498.28;4196937;28;20364;-59
2023/11/23 03:21:09;;;;;;;;;;;;;;;24.51;30.25;102497.31;4196757;28;19926;-59
2023/11/23 03:23:11;;;;;;;;;;;;;;;24.54;30.01;102497.09;4196872;28;19978;-59
2023/11/23 03:25:12;;;;;;;;;;;;;;;24.56;30.08;102508.63;4196504;28;19925;-59
2023/11/23 03:27:14;;;;;;;;;;;;;;;24.58;30.20;102505.84;4197011;28;20007;-59
2023/11/23 03:29:15;;;;;;;;;;;;;;;24.56;29.89;102508.63;4196596;28;19920;-59
2023/11/23 03:31:17;;;;;;;;;;;;;;;24.56;29.87;102513.16;4196658;28;20340;-61
2023/11/23 03:33:18;;;;;;;;;;;;;;;24.53;30.26;102503.47;4196992;28;19920;-59
2023/11/23 03:35:20;;;;;;;;;;;;;;;24.52;30.15;102503.56;4196687;28;20002;-59
2023/11/23 03:37:22;;;;;;;;;;;;;;;24.49;30.21;102504.63;4196574;28;19920;-59
2023/11/23 03:39:23;;;;;;;;;;;;;;;24.50;30.15;102502.81;4196577;28;20015;-59
2023/11/23 03:41:25;;;;;;;;;;;;;;;24.52;30.14;102495.47;4195286;28;19927;-59
2023/11/23 03:43:26;;;;;;;;;;;;;;;24.54;30.30;102501.63;4199259;28;20398;-59
2023/11/23 03:45:28;;;;;;;;;;;;;;;24.55;30.03;102496.16;4200145;28;19964;-59
2023/11/23 03:47:29;;;;;;;;;;;;;;;24.59;30.14;102495.94;4199905;28;19963;-58
2023/11/23 03:49:31;;;;;;;;;;;;;;;24.58;30.37;102495.06;4199964;28;19924;-59
2023/11/23 03:51:32;;;;;;;;;;;;;;;24.58;30.04;102492.38;4199868;28;19928;-59
2023/11/23 03:53:34;;;;;;;;;;;;;;;24.57;30.33;102490.69;4199799;28;19920;-59
2023/11/23 03:55:35;;;;;;;;;;;;;;;24.55;30.21;102493.44;4199580;28;19921;-59
2023/11/23 03:57:38;;;;;;;;;;;;;;;24.53;30.30;102491.84;4199561;28;19927;-58
2023/11/23 03:59:40;;;;;;;;;;;;;;;24.51;30.33;102486.56;4199908;28;19924;-58
2023/11/23 04:01:45;;;;;;;;;;;;;;;24.51;30.51;102491.06;4199691;28;20408;-58
2023/11/23 04:03:47;;;;;;;;;;;;;;;24.52;30.30;102488.28;4198640;28;19947;-57
2023/11/23 04:05:48;;;;;;;;;;;;;;;24.54;30.18;102496.25;4199529;28;19932;-57
2023/11/23 04:07:50;;;;;;;;;;;;;;;24.56;30.30;102488.94;4199798;28;20298;-60
2023/11/23 04:09:52;;;;;;;;;;;;;;;24.58;30.11;102478.94;4199666;28;19931;-58
2023/11/23 04:11:53;;;;;;;;;;;;;;;24.60;30.31;102484.22;4199179;28;20014;-57
2023/11/23 04:13:55;;;;;;;;;;;;;;;24.61;30.12;102480.59;4199772;28;19924;-59
2023/11/23 04:15:56;;;;;;;;;;;;;;;24.58;30.14;102473.56;4199307;28;20299;-58
2023/11/23 04:17:58;;;;;;;;;;;;;;;24.56;30.20;102479.03;4199267;28;20367;-59
2023/11/23 04:19:59;;;;;;;;;;;;;;;24.56;30.41;102484.41;4199575;28;19925;-59
2023/11/23 04:22:03;;;;;;;;;;;;;;;24.54;30.30;102480.97;4199440;28;19932;-59
2023/11/23 04:24:04;;;;;;;;;;;;;;;24.54;30.27;102480.13;4199197;28;20346;-59
2023/11/23 04:26:06;;;;;;;;;;;;;;;24.54;30.56;102474.72;4198983;28;19970;-59
2023/11/23 04:28:08;;;;;;;;;;;;;;;24.56;30.38;102481.72;4199378;28;19939;-59
2023/11/23 04:30:10;;;;;;;;;;;;;;;24.59;30.28;102485.19;4199384;28;19934;-59
2023/11/23 04:32:12;;;;;;;;;;;;;;;24.61;30.11;102486.81;4199358;28;19924;-59
2023/11/23 04:34:13;;;;;;;;;;;;;;;24.62;30.28;102479.59;4199163;28;19920;-59
2023/11/23 04:36:15;;;;;;;;;;;;;;;24.63;30.31;102482.19;4199102;28;20295;-59
2023/11/23 04:38:17;;;;;;;;;;;;;;;24.62;30.30;102479.59;4199269;28;20298;-59
2023/11/23 04:40:18;;;;;;;;;;;;;;;24.61;30.33;102485.97;4198786;28;19963;-59
2023/11/23 04:42:20;;;;;;;;;;;;;;;24.58;30.20;102481.63;4199029;28;19920;-60
2023/11/23 04:44:22;;;;;;;;;;;;;;;24.57;30.25;102482.63;4199032;28;20023;-60
2023/11/23 04:46:23;;;;;;;;;;;;;;;24.55;30.43;102480.00;4199154;28;20287;-59
2023/11/23 04:48:25;;;;;;;;;;;;;;;24.59;30.49;102482.50;4199293;28;19973;-57
2023/11/23 04:50:26;;;;;;;;;;;;;;;24.60;30.23;102478.84;4198864;28;20023;-61
2023/11/23 04:52:28;;;;;;;;;;;;;;;24.62;30.53;102485.84;4199034;28;19920;-60
2023/11/23 04:54:29;;;;;;;;;;;;;;;24.63;30.35;102473.25;4198363;28;20014;-60
2023/11/23 04:56:36;;;;;;;;;;;;;;;24.65;30.45;102480.25;4198861;28;19927;-60
2023/11/23 04:58:38;;;;;;;;;;;;;;;24.65;30.30;102480.25;4198936;28;20018;-60
2023/11/23 05:00:39;;;;;;;;;;;;;;;24.64;30.59;102477.66;4198989;28;20449;-60
2023/11/23 05:02:43;;;;;;;;;;;;;;;24.62;30.60;102480.47;4198743;28;19920;-60
2023/11/23 05:04:46;;;;;;;;;;;;;;;24.62;30.48;102484.97;4198848;28;20405;-57
2023/11/23 05:06:47;;;;;;;;;;;;;;;24.59;30.55;102483.34;4198657;28;20306;-59
2023/11/23 05:08:48;;;;;;;;;;;;;;;24.59;30.80;102490.56;4198830;28;19927;-60
2023/11/23 05:10:55;;;;;;;;;;;;;;;24.59;30.44;102490.56;4198819;28;19959;-59
2023/11/23 05:12:56;;;;;;;;;;;;;;;24.62;30.58;102488.53;4198745;28;19921;-59
2023/11/23 05:14:58;;;;;;;;;;;;;;;24.65;30.53;102490.16;4198397;28;20006;-59
2023/11/23 05:17:00;;;;;;;;;;;;;;;24.66;30.75;102490.06;4198554;28;19921;-57
2023/11/23 05:19:01;;;;;;;;;;;;;;;24.67;30.70;102497.19;4198549;28;19920;-58
2023/11/23 05:21:08;;;;;;;;;;;;;;;24.67;30.51;102491.81;4198508;28;20334;-58
2023/11/23 05:23:14;;;;;;;;;;;;;;;24.67;30.46;102482.88;4198586;28;19935;-58
2023/11/23 05:25:16;;;;;;;;;;;;;;;24.65;30.50;102477.56;4198204;28;19951;-58
2023/11/23 05:27:17;;;;;;;;;;;;;;;24.64;30.53;102472.28;4198540;28;20355;-58
2023/11/23 05:29:20;;;;;;;;;;;;;;;24.60;30.72;102468.94;4198613;28;19991;-58
2023/11/23 05:31:21;;;;;;;;;;;;;;;24.60;30.73;102466.25;4197127;28;19931;-58
2023/11/23 05:33:23;;;;;;;;;;;;;;;24.61;30.89;102459.06;4198276;28;19921;-58
2023/11/23 05:35:30;;;;;;;;;;;;;;;24.63;30.64;102460.69;4198286;28;19921;-58
2023/11/23 05:37:32;;;;;;;;;;;;;;;24.66;30.71;102475.78;4198325;28;19924;-58
2023/11/23 05:39:33;;;;;;;;;;;;;;;24.67;30.87;102469.44;4197977;28;19920;-59
2023/11/23 05:41:35;;;;;;;;;;;;;;;24.67;30.58;102481.03;4198190;28;19921;-58
2023/11/23 05:43:36;;;;;;;;;;;;;;;24.69;30.73;102484.50;4198032;28;19920;-58
2023/11/23 05:45:38;;;;;;;;;;;;;;;24.67;30.59;102474.81;4198018;28;20033;-59
2023/11/23 05:47:45;;;;;;;;;;;;;;;24.67;30.82;102477.50;4197878;28;20335;-59
2023/11/23 05:49:46;;;;;;;;;;;;;;;24.64;30.64;102466.91;4198187;28;19926;-59
2023/11/23 05:51:48;;;;;;;;;;;;;;;24.64;30.89;102474.97;4197834;28;19936;-59
2023/11/23 05:53:50;;;;;;;;;;;;;;;24.61;30.91;102470.66;4197641;28;20418;-59
2023/11/23 05:55:56;;;;;;;;;;;;;;;24.62;31.06;102467.00;4196703;28;19927;-59
2023/11/23 05:58:03;;;;;;;;;;;;;;;24.66;30.83;102470.41;4197783;28;20011;-59
2023/11/23 06:00:06;;;;;;;;;;;;;;;24.66;30.92;102465.88;4197775;28;19952;-59
2023/11/23 06:02:07;;;;;;;;;;;;;;;24.69;30.60;102465.66;4197981;28;20386;-59
2023/11/23 06:04:09;;;;;;;;;;;;;;;24.70;30.99;102464.72;4197746;28;19920;-59
2023/11/23 06:06:20;;;;;;;;;;;;;;;24.70;30.62;102464.72;4197056;28;19920;-59
2023/11/23 06:08:22;;;;;;;;;;;;;;;24.69;31.05;102465.66;4197584;28;19924;-59
2023/11/23 06:10:24;;;;;;;;;;;;;;;24.68;30.86;102458.56;4197743;28;19963;-59
2023/11/23 06:12:28;;;;;;;;;;;;;;;24.67;30.88;102464.91;4197634;28;20015;-59
2023/11/23 06:14:30;;;;;;;;;;;;;;;24.65;31.01;102465.94;4197708;28;20270;-59
2023/11/23 06:16:32;;;;;;;;;;;;;;;24.64;31.08;102465.09;4197538;28;20002;-59
2023/11/23 06:18:33;;;;;;;;;;;;;;;24.65;31.23;102463.25;4197590;28;20003;-59
2023/11/23 06:20:35;;;;;;;;;;;;;;;24.65;31.16;102458.72;4197635;28;20553;-58
2023/11/23 06:22:37;;;;;;;;;;;;;;;24.68;30.98;102452.28;4197181;28;19920;-59
2023/11/23 06:24:39;;;;;;;;;;;;;;;24.70;30.72;102453.94;4197435;28;19920;-59
2023/11/23 06:26:40;;;;;;;;;;;;;;;24.72;30.95;102452.00;4197396;28;20015;-60
2023/11/23 06:28:42;;;;;;;;;;;;;;;24.72;30.93;102452.00;4196133;28;20035;-59
2023/11/23 06:30:44;;;;;;;;;;;;;;;24.72;30.88;102446.59;4197662;28;19943;-58
2023/11/23 06:32:47;;;;;;;;;;;;;;;24.71;30.82;102452.09;4197403;28;19920;-59
2023/11/23 06:34:48;;;;;;;;;;;;;;;24.69;30.93;102457.59;4197418;28;19924;-58
2023/11/23 06:36:50;;;;;;;;;;;;;;;24.68;30.99;102461.25;4196957;28;20100;-60
2023/11/23 06:38:52;;;;;;;;;;;;;;;24.68;31.06;102471.13;4197137;28;20015;-59
2023/11/23 06:40:55;;;;;;;;;;;;;;;24.68;31.09;102463.94;4197141;28;19921;-58
2023/11/23 06:42:56;;;;;;;;;;;;;;;24.68;31.17;102455.88;4197059;28;19943;-58
2023/11/23 06:44:59;;;;;;;;;;;;;;;24.72;31.15;102453.84;4197199;28;19943;-58
2023/11/23 06:47:00;;;;;;;;;;;;;;;24.73;30.87;102450.19;4197131;28;20313;-58
2023/11/23 06:49:02;;;;;;;;;;;;;;;24.74;31.52;102456.41;4197181;28;20036;-58
2023/11/23 06:51:08;;;;;;;;;;;;;;;24.75;31.16;102456.28;4196707;28;20368;-58
2023/11/23 06:53:09;;;;;;;;;;;;;;;24.76;31.07;102462.56;4197224;28;20392;-57
2023/11/23 06:55:13;;;;;;;;;;;;;;;24.73;30.89;102460.94;4197104;28;19928;-57
2023/11/23 06:57:16;;;;;;;;;;;;;;;24.72;31.30;102465.44;4196999;28;20018;-57
2023/11/23 06:59:18;;;;;;;;;;;;;;;24.70;31.46;102470.09;4197097;28;20309;-58
2023/11/23 07:01:21;;;;;;;;;;;;;;;24.69;31.06;102471.06;4197102;28;19955;-58
2023/11/23 07:03:23;;;;;;;;;;;;;;;24.70;31.23;102479.97;4196991;28;20039;-58
2023/11/23 07:05:25;;;;;;;;;;;;;;;24.71;31.58;102470.94;4196566;28;19920;-58
2023/11/23 07:07:26;;;;;;;;;;;;;;;24.74;31.39;102472.56;4195639;28;19927;-59
2023/11/23 07:09:28;;;;;;;;;;;;;;;24.75;31.43;102464.38;4196885;28;19921;-59
2023/11/23 07:11:30;;;;;;;;;;;;;;;24.77;31.26;102475.03;4197063;28;20280;-58
2023/11/23 07:13:32;;;;;;;;;;;;;;;24.77;31.25;102470.50;4196937;28;19939;-59
2023/11/23 07:15:33;;;;;;;;;;;;;;;24.74;31.27;102469.88;4197075;28;20303;-58
2023/11/23 07:17:35;;;;;;;;;;;;;;;24.71;31.32;102466.41;4196984;28;20268;-58
2023/11/23 07:19:37;;;;;;;;;;;;;;;24.70;31.32;102469.22;4196639;28;19959;-59
2023/11/23 07:21:38;;;;;;;;;;;;;;;24.69;31.27;102465.66;4196925;28;19920;-59
2023/11/23 07:23:40;;;;;;;;;;;;;;;24.68;31.45;102463.94;4196679;28;20288;-58
2023/11/23 07:25:43;;;;;;;;;;;;;;;24.67;31.48;102462.22;4196865;28;19920;-58
2023/11/23 07:27:45;;;;;;;;;;;;;;;24.70;31.41;102463.81;4196823;28;19920;-58
2023/11/23 07:29:46;;;;;;;;;;;;;;;24.74;31.29;102464.47;4196831;28;19921;-58
2023/11/23 07:31:48;;;;;;;;;;;;;;;24.74;31.52;102454.59;4196695;28;19975;-58
2023/11/23 07:33:50;;;;;;;;;;;;;;;24.76;31.37;102451.78;4196260;28;19921;-58
2023/11/23 07:35:52;;;;;;;;;;;;;;;24.77;31.40;102453.53;4196802;28;20295;-58
2023/11/23 07:37:54;;;;;;;;;;;;;;;24.77;31.24;102451.69;4196495;28;19931;-58
2023/11/23 07:39:56;;;;;;;;;;;;;;;24.73;31.63;102458.25;4196878;28;20425;-58
2023/11/23 07:41:58;;;;;;;;;;;;;;;24.71;31.52;102460.19;4196510;28;19952;-58
2023/11/23 07:44:00;;;;;;;;;;;;;;;24.69;31.57;102465.66;4196638;28;19932;-58
2023/11/23 07:46:02;;;;;;;;;;;;;;;24.68;31.67;102454.97;4196722;28;19927;-59
2023/11/23 07:48:08;;;;;;;;;;;;;;;24.69;31.53;102462.09;4196650;28;20377;-59
2023/11/23 07:50:11;;;;;;;;;;;;;;;24.71;31.62;102460.19;4196327;28;20186;-60
2023/11/23 07:52:13;;;;;;;;;;;;;;;24.75;31.61;102452.75;4196404;28;19989;-59
2023/11/23 07:54:15;;;;;;;;;;;;;;;24.76;31.54;102458.03;4196394;28;19920;-59
2023/11/23 07:56:16;;;;;;;;;;;;;;;24.77;31.52;102454.38;4196647;28;19921;-58
2023/11/23 07:58:18;;;;;;;;;;;;;;;24.78;31.50;102460.63;4196572;28;19920;-59
2023/11/23 08:00:20;;;;;;;;;;;;;;;24.76;31.54;102462.56;4196559;28;19956;-59
2023/11/23 08:02:25;;;;;;;;;;;;;;;24.76;31.56;102457.19;4196607;28;19921;-59
2023/11/23 08:04:26;;;;;;;;;;;;;;;24.75;31.45;102467.06;4196227;28;19955;-59
2023/11/23 08:06:28;;;;;;;;;;;;;;;24.72;31.70;102468.13;4196489;28;19920;-59
2023/11/23 08:08:30;;;;;;;;;;;;;;;24.72;31.81;102467.28;4196490;28;20523;-59
2023/11/23 08:10:31;;;;;;;;;;;;;;;24.74;31.89;102467.16;4195411;28;19921;-59
2023/11/23 08:12:33;;;;;;;;;;;;;;;24.78;31.77;102474.94;4196590;28;19973;-59
2023/11/23 08:14:35;;;;;;;;;;;;;;;24.80;31.56;102466.75;4196540;28;19920;-59
2023/11/23 08:16:36;;;;;;;;;;;;;;;24.82;31.53;102470.19;4196444;28;19920;-58
2023/11/23 08:18:38;;;;;;;;;;;;;;;24.83;31.90;102470.09;4196292;28;19920;-58
2023/11/23 08:20:50;;;;;;;;;;;;;;;24.84;31.56;102465.59;4196367;28;19966;-58
2023/11/23 08:22:51;;;;;;;;;;;;;;;24.82;31.67;102470.19;4196476;28;20012;-58
2023/11/23 08:24:53;;;;;;;;;;;;;;;24.81;31.66;102466.66;4196420;28;19921;-58
2023/11/23 08:26:54;;;;;;;;;;;;;;;24.80;31.87;102477.50;4196646;28;20363;-58
2023/11/23 08:28:56;;;;;;;;;;;;;;;24.77;31.98;102483.97;4198118;28;19974;-57
2023/11/23 08:30:58;;;;;;;;;;;;;;;24.76;31.82;102484.94;4199541;28;19999;-58
2023/11/23 08:33:00;;;;;;;;;;;;;;;24.80;31.80;102485.59;4199209;28;19921;-58
2023/11/23 08:35:03;;;;;;;;;;;;;;;24.82;31.92;102483.66;4199418;28;20003;-57
2023/11/23 08:37:05;;;;;;;;;;;;;;;24.83;32.04;102486.25;4199120;28;20280;-58
2023/11/23 08:39:06;;;;;;;;;;;;;;;24.85;31.94;102489.69;4199301;28;19924;-58
2023/11/23 08:41:07;;;;;;;;;;;;;;;24.86;32.06;102490.53;4199307;28;20015;-58
2023/11/23 08:43:12;;;;;;;;;;;;;;;24.85;31.81;102487.00;4199104;28;19956;-58
2023/11/23 08:45:13;;;;;;;;;;;;;;;24.83;32.07;102485.38;4199066;28;19928;-58
2023/11/23 08:47:15;;;;;;;;;;;;;;;24.80;31.96;102480.19;4198906;28;20352;-59
2023/11/23 08:49:17;;;;;;;;;;;;;;;24.78;31.91;102484.84;4199096;28;19966;-59
2023/11/23 08:51:18;;;;;;;;;;;;;;;24.76;32.08;102492.16;4198815;28;20033;-59
2023/11/23 08:53:20;;;;;;;;;;;;;;;24.76;31.94;102481.38;4197870;28;19924;-59
2023/11/23 08:55:22;;;;;;;;;;;;;;;24.77;32.09;102480.44;4198968;28;19947;-59
2023/11/23 08:57:23;;;;;;;;;;;;;;;24.81;32.08;102474.75;4199027;28;20380;-59
2023/11/23 08:59:25;;;;;;;;;;;;;;;24.86;32.23;102482.47;4198878;28;19920;-59
2023/11/23 09:01:26;;;;;;;;;;;;;;;24.90;31.93;102478.63;4198592;28;19943;-59
2023/11/23 09:03:28;;;;;;;;;;;;;;;24.94;32.22;102484.66;4198954;28;19920;-59
2023/11/23 09:05:30;;;;;;;;;;;;;;;24.95;32.07;102486.38;4198652;28;19920;-58
2023/11/23 09:07:33;;;;;;;;;;;;;;;24.93;31.93;102485.63;4198801;28;19943;-58
2023/11/23 09:09:35;;;;;;;;;;;;;;;24.91;31.95;102485.72;4198808;28;19924;-59
2023/11/23 09:11:37;;;;;;;;;;;;;;;24.89;32.24;102498.41;4198513;28;19948;-59
2023/11/23 09:13:38;;;;;;;;;;;;;;;24.86;32.20;102490.53;4198565;28;19921;-59
2023/11/23 09:15:39;;;;;;;;;;;;;;;24.85;32.23;102503.16;4198263;28;19968;-59
2023/11/23 09:17:41;;;;;;;;;;;;;;;24.86;32.51;102493.25;4198638;28;20268;-59
2023/11/23 09:19:43;;;;;;;;;;;;;;;24.89;32.42;102487.66;4198553;28;19920;-59
2023/11/23 09:21:47;;;;;;;;;;;;;;;24.91;32.40;102493.81;4198582;28;20322;-59
2023/11/23 09:23:49;;;;;;;;;;;;;;;24.94;32.09;102506.19;4198559;28;20019;-59
2023/11/23 09:25:51;;;;;;;;;;;;;;;24.95;32.14;102508.75;4214148;28;19920;-59
2023/11/23 09:27:53;;;;;;;;;;;;;;;24.95;32.34;102514.16;4198435;28;19920;-59
2023/11/23 09:29:56;;;;;;;;;;;;;;;24.94;32.26;102514.25;4198137;28;19924;-59
2023/11/23 09:31:58;;;;;;;;;;;;;;;24.93;32.29;102512.53;4198479;28;19927;-59
2023/11/23 09:34:00;;;;;;;;;;;;;;;24.90;32.25;102516.31;4198294;28;20319;-59
2023/11/23 09:36:02;;;;;;;;;;;;;;;24.89;32.35;102511.88;4198428;28;19927;-59
2023/11/23 09:38:04;;;;;;;;;;;;;;;24.88;32.44;102515.53;4198226;28;20003;-59
2023/11/23 09:40:09;;;;;;;;;;;;;;;24.89;32.47;102511.88;4197258;28;20324;-58
2023/11/23 09:42:11;;;;;;;;;;;;;;;24.90;32.72;102513.59;4198269;28;20272;-59
2023/11/23 09:44:16;;;;;;;;;;;;;;;24.93;32.67;102508.00;4197943;28;20013;-59
2023/11/23 09:46:19;;;;;;;;;;;;;;;24.96;32.71;102513.19;4197942;28;20306;-58
2023/11/23 09:48:22;;;;;;;;;;;;;;;25.01;32.45;102502.97;4198096;28;20404;-58
2023/11/23 09:50:25;;;;;;;;;;;;;;;25.02;32.39;102510.06;4197857;28;20007;-59
2023/11/23 09:52:28;;;;;;;;;;;;;;;25.02;32.43;102511.91;4198008;28;19921;-59
2023/11/23 09:54:32;;;;;;;;;;;;;;;25.02;32.41;102515.44;4197990;28;19936;-59
2023/11/23 09:56:34;;;;;;;;;;;;;;;25.00;32.46;102519.22;4197926;28;19920;-59
2023/11/23 09:58:36;;;;;;;;;;;;;;;24.97;32.55;102514.91;4197914;28;19920;-60
2023/11/23 10:00:37;;;;;;;;;;;;;;;24.99;32.52;102514.81;4197505;28;19920;-59
2023/11/23 10:02:39;;;;;;;;;;;;;;;24.98;32.62;102510.38;4196850;28;19924;-59
2023/11/23 10:04:41;;;;;;;;;;;;;;;24.99;32.76;102510.25;4194627;28;19924;-59
2023/11/23 10:06:43;;;;;;;;;;;;;;;25.01;32.54;102504.78;4197742;28;20303;-60
2023/11/23 10:08:45;;;;;;;;;;;;;;;25.04;32.71;102496.50;4197726;28;19943;-61
2023/11/23 10:10:47;;;;;;;;;;;;;;;25.04;32.55;102492.00;4196261;28;19920;-59
2023/11/23 10:12:49;;;;;;;;;;;;;;;25.04;32.66;102499.19;4194380;28;19954;-60
2023/11/23 10:14:52;;;;;;;;;;;;;;;25.04;32.75;102496.50;4196486;28;19965;-60
2023/11/23 10:16:53;;;;;;;;;;;;;;;25.02;32.85;102499.31;4196749;28;19986;-59
2023/11/23 10:18:55;;;;;;;;;;;;;;;25.00;33.06;102509.31;4196544;28;20299;-60
2023/11/23 10:20:56;;;;;;;;;;;;;;;24.98;32.99;102494.22;4196697;28;20347;-59
2023/11/23 10:23:04;;;;;;;;;;;;;;;24.97;33.10;102487.13;4196748;28;20011;-60
2023/11/23 10:25:31;;;;;;;;;;;;;;;24.96;33.18;102482.69;4196745;28;19921;-60
2023/11/23 10:27:34;;;;;;;;;;;;;;;24.98;33.31;102478.97;4196627;28;19931;-59